Terminal Aerodrome Forecast
Issued by NWS

Home | Current Version | Previous Version | Text Only | Print | Product List | Glossary On
Versions: 1 2 3 4 5 6 7 8 9 10 11 12 13
000
FTUS46 KSTO 270500
TAFMHR
TAF
KMHR 270534Z 2706/2806 VRB05KT P6SM SCT250
     FM271400 14005KT P6SM SCT060 BKN120
     FM272000 20011KT P6SM BKN040 BKN080 PROB30 2720/2724 20013G21KT
      -SHRA BKN025=

USA.gov is the U.S. government's official web portal to all federal, state and local government web resources and services.